createdAt,value
2023-05-03T00:04:32.051Z,61.27
2023-05-03T00:09:52.909Z,61.38
2023-05-03T00:15:13.874Z,61.47
2023-05-03T00:20:34.927Z,61.49
2023-05-03T00:25:57.491Z,61.20
2023-05-03T00:31:19.570Z,60.89
2023-05-03T00:36:40.471Z,61.17
2023-05-03T00:42:04.372Z,61.27
2023-05-03T00:47:25.724Z,61.08
2023-05-03T00:52:47.112Z,61.15
2023-05-03T00:58:08.107Z,61.02
2023-05-03T01:03:29.470Z,61.13
2023-05-03T01:08:59.221Z,61.08
2023-05-03T01:14:54.644Z,60.92
2023-05-03T01:20:24.782Z,61.12
2023-05-03T01:25:45.829Z,60.82
2023-05-03T01:31:07.201Z,61.06
2023-05-03T01:36:34.546Z,61.35
2023-05-03T01:41:58.112Z,61.26
2023-05-03T01:47:19.039Z,61.08
2023-05-03T01:52:40.376Z,61.13
2023-05-03T01:58:01.361Z,61.34
2023-05-03T02:03:22.834Z,61.34
2023-05-03T02:08:43.612Z,61.04
2023-05-03T02:14:04.711Z,61.26
2023-05-03T02:19:25.687Z,60.98
2023-05-03T02:24:47.362Z,61.32
2023-05-03T02:30:08.986Z,61.25
2023-05-03T02:35:35.924Z,61.31
2023-05-03T02:40:56.920Z,61.26
2023-05-03T02:46:19.368Z,61.45
2023-05-03T02:51:40.452Z,61.43
2023-05-03T02:57:02.183Z,61.16
2023-05-03T03:02:23.410Z,60.44
2023-05-03T03:07:44.574Z,60.48
2023-05-03T03:13:05.591Z,60.41
2023-05-03T03:18:32.018Z,60.16
2023-05-03T03:23:53.344Z,59.94
2023-05-03T03:29:14.083Z,60.35
2023-05-03T03:34:37.869Z,60.02
2023-05-03T03:39:59.565Z,59.93
2023-05-03T03:45:20.885Z,60.19
2023-05-03T03:50:44.199Z,60.19
2023-05-03T03:56:06.713Z,59.66
2023-05-03T04:01:28.346Z,59.78
2023-05-03T04:06:51.305Z,59.25
2023-05-03T04:12:12.856Z,59.51
2023-05-03T04:17:35.597Z,59.14
2023-05-03T04:23:00.377Z,59.65
2023-05-03T04:28:25.906Z,59.48
2023-05-03T04:33:47.396Z,59.14
2023-05-03T04:39:11.553Z,58.99
2023-05-03T04:44:33.166Z,59.05
2023-05-03T04:49:54.290Z,58.76
2023-05-03T04:55:15.829Z,58.56
2023-05-03T05:00:37.043Z,58.67
2023-05-03T05:06:07.043Z,58.23
2023-05-03T05:11:29.055Z,58.36
2023-05-03T05:16:50.282Z,58.04
2023-05-03T05:22:11.867Z,57.99
2023-05-03T05:27:41.783Z,57.92
2023-05-03T05:33:03.808Z,57.36
2023-05-03T05:38:25.209Z,57.45
2023-05-03T05:43:50.446Z,57.97
2023-05-03T05:49:11.332Z,57.48
2023-05-03T05:54:33.172Z,57.07
2023-05-03T05:59:54.624Z,56.83
2023-05-03T06:05:15.400Z,57.10
2023-05-03T06:10:37.555Z,56.13
2023-05-03T06:15:58.750Z,55.27
2023-05-03T06:21:20.159Z,55.22
2023-05-03T06:26:41.552Z,54.57
2023-05-03T06:32:03.236Z,54.61
2023-05-03T06:37:24.261Z,54.27
2023-05-03T06:42:45.569Z,53.82
2023-05-03T06:48:12.445Z,54.58
2023-05-03T06:53:33.645Z,53.82
2023-05-03T06:58:54.696Z,53.25
2023-05-03T07:04:15.853Z,53.27
2023-05-03T07:09:43.182Z,53.57
2023-05-03T07:15:04.559Z,53.78
2023-05-03T07:20:26.474Z,53.86
2023-05-03T07:25:47.745Z,53.16
2023-05-03T07:31:08.746Z,54.03
2023-05-03T07:36:30.120Z,53.63
2023-05-03T07:41:51.411Z,53.23
2023-05-03T07:47:12.610Z,53.53
2023-05-03T07:52:37.691Z,53.33
2023-05-03T07:57:59.563Z,53.17
2023-05-03T08:03:21.180Z,53.26
2023-05-03T08:08:42.826Z,53.50
2023-05-03T08:14:03.790Z,53.55
2023-05-03T08:19:24.681Z,53.79
2023-05-03T08:24:46.513Z,53.97
2023-05-03T08:30:08.874Z,53.57
2023-05-03T08:35:29.787Z,54.03
2023-05-03T08:40:58.258Z,52.81
2023-05-03T08:46:19.511Z,53.10
2023-05-03T08:51:42.364Z,53.41
2023-05-03T08:57:04.386Z,52.97
2023-05-03T09:02:25.832Z,52.88
2023-05-03T09:08:07.875Z,52.98
2023-05-03T09:13:32.184Z,53.08
2023-05-03T09:19:03.331Z,52.71
2023-05-03T09:24:24.252Z,52.20
2023-05-03T09:29:44.947Z,53.00
2023-05-03T09:35:10.401Z,53.26
2023-05-03T09:40:31.500Z,53.22
2023-05-03T09:45:52.944Z,52.92
2023-05-03T09:51:13.969Z,52.63
2023-05-03T09:56:34.888Z,52.76
2023-05-03T10:01:59.734Z,52.91
2023-05-03T10:07:23.347Z,52.19
2023-05-03T10:12:46.268Z,52.54
2023-05-03T10:18:08.367Z,52.21
2023-05-03T10:23:29.745Z,52.02
2023-05-03T10:28:50.689Z,52.36
2023-05-03T10:34:22.266Z,52.65
2023-05-03T10:39:46.749Z,52.28
2023-05-03T10:45:09.070Z,52.23
2023-05-03T10:50:30.209Z,51.86
2023-05-03T10:56:08.314Z,51.59
2023-05-03T11:01:30.438Z,51.85
2023-05-03T11:06:56.914Z,51.71
2023-05-03T11:12:17.768Z,51.83
2023-05-03T11:17:39.195Z,52.00
2023-05-03T11:23:00.147Z,51.91
2023-05-03T11:28:21.516Z,52.78
2023-05-03T11:33:42.762Z,52.50
2023-05-03T11:39:06.055Z,51.28
2023-05-03T11:44:27.466Z,51.67
2023-05-03T11:49:56.331Z,51.75
2023-05-03T11:55:17.952Z,50.97
2023-05-03T12:00:40.168Z,51.28
2023-05-03T12:06:02.744Z,51.75
2023-05-03T12:11:27.241Z,51.44
2023-05-03T12:16:57.012Z,50.48
2023-05-03T12:22:26.255Z,50.92
2023-05-03T12:27:56.023Z,50.98
2023-05-03T12:33:28.556Z,50.98
2023-05-03T12:38:55.812Z,50.26
2023-05-03T12:44:21.322Z,50.58
2023-05-03T12:49:46.155Z,50.27
2023-05-03T12:55:11.053Z,50.57
2023-05-03T13:00:35.912Z,49.80
2023-05-03T13:05:57.978Z,50.01
2023-05-03T13:11:19.878Z,49.68
2023-05-03T13:16:44.676Z,49.70
2023-05-03T13:22:05.388Z,49.49
2023-05-03T13:27:26.539Z,49.18
2023-05-03T13:32:47.941Z,48.84
2023-05-03T13:38:09.239Z,48.42
2023-05-03T13:43:30.122Z,48.14
2023-05-03T13:48:52.761Z,48.03
2023-05-03T13:54:13.719Z,48.51
2023-05-03T13:59:34.593Z,48.81
2023-05-03T14:04:55.649Z,48.58
2023-05-03T14:10:16.896Z,47.87
2023-05-03T14:15:43.201Z,48.07
2023-05-03T14:21:04.427Z,48.41
2023-05-03T14:26:26.736Z,47.98
2023-05-03T14:31:48.021Z,48.47
2023-05-03T14:37:09.358Z,47.91
2023-05-03T14:42:30.764Z,48.03
2023-05-03T14:47:52.087Z,48.16
2023-05-03T14:53:13.168Z,47.99
2023-05-03T14:58:33.933Z,48.44
2023-05-03T15:03:54.851Z,48.40
2023-05-03T15:09:15.513Z,48.04
2023-05-03T15:14:36.261Z,48.09
2023-05-03T15:19:56.944Z,47.62
2023-05-03T15:25:17.960Z,47.80
2023-05-03T15:30:40.997Z,47.98
2023-05-03T15:36:07.260Z,48.28
2023-05-03T15:41:28.356Z,47.60
2023-05-03T15:46:52.178Z,47.52
2023-05-03T15:52:16.208Z,47.26
2023-05-03T15:57:37.341Z,47.29
2023-05-03T16:03:05.928Z,47.41
2023-05-03T16:08:29.160Z,47.88
2023-05-03T16:13:50.535Z,47.21
2023-05-03T16:19:11.950Z,46.75
2023-05-03T16:24:35.703Z,47.35
2023-05-03T16:29:58.232Z,46.97
2023-05-03T16:35:19.547Z,46.48
2023-05-03T16:40:40.942Z,46.48
2023-05-03T16:46:02.498Z,46.69
2023-05-03T16:51:23.881Z,46.30
2023-05-03T16:56:44.682Z,46.14
2023-05-03T17:02:06.458Z,45.69
2023-05-03T17:07:27.190Z,45.89
2023-05-03T17:12:48.994Z,46.29
2023-05-03T17:18:10.284Z,46.50
2023-05-03T17:23:39.467Z,46.68
2023-05-03T17:29:01.067Z,46.20
2023-05-03T17:34:22.532Z,46.40
2023-05-03T17:39:43.434Z,46.66
2023-05-03T17:45:05.424Z,46.67
2023-05-03T17:50:26.283Z,46.69
2023-05-03T17:55:47.071Z,47.38
2023-05-03T18:01:10.537Z,47.41
2023-05-03T18:06:31.282Z,47.68
2023-05-03T18:11:54.719Z,47.72
2023-05-03T18:17:15.654Z,47.64
2023-05-03T18:22:37.640Z,47.89
2023-05-03T18:27:58.496Z,47.80
2023-05-03T18:33:20.027Z,47.98
2023-05-03T18:38:43.050Z,48.17
2023-05-03T18:44:04.486Z,48.22
2023-05-03T18:49:25.191Z,48.11
2023-05-03T18:54:45.883Z,48.26
2023-05-03T19:00:09.665Z,48.37
2023-05-03T19:05:31.074Z,48.39
2023-05-03T19:10:52.265Z,48.44
2023-05-03T19:16:14.049Z,48.37
2023-05-03T19:21:37.803Z,48.80
2023-05-03T19:26:58.523Z,48.60
2023-05-03T19:32:19.310Z,48.26
2023-05-03T19:37:40.313Z,47.97
2023-05-03T19:43:02.223Z,48.06
2023-05-03T19:48:23.257Z,48.14
2023-05-03T19:53:45.541Z,48.54
2023-05-03T19:59:07.695Z,48.28
2023-05-03T20:04:28.798Z,48.65
2023-05-03T20:09:49.966Z,48.89
2023-05-03T20:15:11.743Z,49.23
2023-05-03T20:20:33.095Z,49.22
2023-05-03T20:25:54.208Z,49.57
2023-05-03T20:31:14.985Z,49.61
2023-05-03T20:36:35.868Z,49.68
2023-05-03T20:41:56.682Z,49.45
2023-05-03T20:47:18.159Z,49.44
2023-05-03T20:52:39.287Z,49.75
2023-05-03T20:57:59.995Z,50.26
2023-05-03T21:03:25.170Z,50.15
2023-05-03T21:08:47.329Z,50.57
2023-05-03T21:14:08.844Z,50.28
2023-05-03T21:19:29.827Z,50.08
2023-05-03T21:24:51.225Z,50.22
2023-05-03T21:30:13.730Z,50.55
2023-05-03T21:35:34.961Z,50.75
2023-05-03T21:41:05.759Z,50.45
2023-05-03T21:46:26.744Z,50.79
2023-05-03T21:51:47.740Z,50.65
2023-05-03T21:57:09.039Z,50.99
2023-05-03T22:02:29.887Z,50.80
2023-05-03T22:07:51.286Z,51.24
2023-05-03T22:13:12.497Z,50.93
2023-05-03T22:18:35.023Z,51.47
2023-05-03T22:23:55.775Z,51.39
2023-05-03T22:29:17.729Z,51.46
2023-05-03T22:34:38.864Z,51.42
2023-05-03T22:39:59.579Z,51.56
2023-05-03T22:45:20.708Z,51.66
2023-05-03T22:50:41.925Z,51.55
2023-05-03T22:56:06.750Z,51.89
2023-05-03T23:01:28.201Z,51.66
2023-05-03T23:06:49.176Z,51.81
2023-05-03T23:12:10.013Z,51.54
2023-05-03T23:17:30.889Z,51.84
2023-05-03T23:22:51.949Z,51.65
2023-05-03T23:28:12.747Z,52.06
2023-05-03T23:33:34.109Z,51.74
2023-05-03T23:38:55.058Z,51.73
2023-05-03T23:44:15.747Z,51.55
2023-05-03T23:49:36.517Z,51.89
2023-05-03T23:54:57.295Z,51.76
